sensor_id;sensor_type;location;lat;lon;timestamp;pressure;altitude;pressure_sealevel;temperature;humidity
72950;BME280;64868;45.710;9.590;2023-01-05T00:01:17;99855.09;;;6.78;86.87
72950;BME280;64868;45.710;9.590;2023-01-05T00:03:42;99842.41;;;6.79;85.65
72950;BME280;64868;45.710;9.590;2023-01-05T00:06:12;99837.94;;;6.78;86.27
72950;BME280;64868;45.710;9.590;2023-01-05T00:08:39;99843.97;;;6.85;86.30
72950;BME280;64868;45.710;9.590;2023-01-05T00:13:54;99837.28;;;6.93;85.35
72950;BME280;64868;45.710;9.590;2023-01-05T00:16:38;99839.69;;;6.99;85.74
72950;BME280;64868;45.710;9.590;2023-01-05T00:19:22;99837.84;;;7.00;85.08
72950;BME280;64868;45.710;9.590;2023-01-05T00:22:21;99841.91;;;7.10;84.97
72950;BME280;64868;45.710;9.590;2023-01-05T00:25:08;99831.69;;;7.17;83.92
72950;BME280;64868;45.710;9.590;2023-01-05T00:27:34;99828.66;;;7.23;84.62
72950;BME280;64868;45.710;9.590;2023-01-05T00:30:00;99835.03;;;7.22;84.89
72950;BME280;64868;45.710;9.590;2023-01-05T00:32:26;99817.25;;;7.16;85.16
72950;BME280;64868;45.710;9.590;2023-01-05T00:34:55;99811.47;;;7.24;84.09
72950;BME280;64868;45.710;9.590;2023-01-05T00:37:23;99807.63;;;7.09;83.88
72950;BME280;64868;45.710;9.590;2023-01-05T00:39:49;99816.84;;;7.05;84.17
72950;BME280;64868;45.710;9.590;2023-01-05T00:42:15;99805.41;;;6.98;85.28
72950;BME280;64868;45.710;9.590;2023-01-05T00:44:41;99801.34;;;6.88;84.35
72950;BME280;64868;45.710;9.590;2023-01-05T00:47:07;99806.84;;;6.87;84.64
72950;BME280;64868;45.710;9.590;2023-01-05T00:49:32;99803.38;;;6.83;85.11
72950;BME280;64868;45.710;9.590;2023-01-05T00:51:58;99792.81;;;6.77;85.03
72950;BME280;64868;45.710;9.590;2023-01-05T00:54:24;99791.19;;;6.73;85.69
72950;BME280;64868;45.710;9.590;2023-01-05T00:56:49;99793.78;;;6.76;84.71
72950;BME280;64868;45.710;9.590;2023-01-05T00:59:15;99791.72;;;6.81;84.49
72950;BME280;64868;45.710;9.590;2023-01-05T01:01:44;99785.28;;;6.83;85.07
72950;BME280;64868;45.710;9.590;2023-01-05T01:04:10;99793.00;;;6.93;85.84
72950;BME280;64868;45.710;9.590;2023-01-05T01:06:36;99793.06;;;6.91;85.04
72950;BME280;64868;45.710;9.590;2023-01-05T01:09:01;99789.41;;;6.92;84.50
72950;BME280;64868;45.710;9.590;2023-01-05T01:11:27;99790.44;;;6.90;84.09
72950;BME280;64868;45.710;9.590;2023-01-05T01:13:52;99779.88;;;6.83;85.50
72950;BME280;64868;45.710;9.590;2023-01-05T01:16:18;99785.56;;;6.77;84.14
72950;BME280;64868;45.710;9.590;2023-01-05T01:18:43;99767.97;;;6.67;85.80
72950;BME280;64868;45.710;9.590;2023-01-05T01:21:08;99775.81;;;6.73;85.37
72950;BME280;64868;45.710;9.590;2023-01-05T01:23:35;99761.81;;;6.64;86.56
72950;BME280;64868;45.710;9.590;2023-01-05T01:26:06;99775.16;;;6.68;85.39
72950;BME280;64868;45.710;9.590;2023-01-05T01:28:32;99777.84;;;6.68;85.44
72950;BME280;64868;45.710;9.590;2023-01-05T01:30:58;99778.66;;;6.70;86.07
72950;BME280;64868;45.710;9.590;2023-01-05T01:33:24;99779.56;;;6.71;85.04
72950;BME280;64868;45.710;9.590;2023-01-05T01:35:49;99782.19;;;6.72;85.80
72950;BME280;64868;45.710;9.590;2023-01-05T01:38:15;99781.09;;;6.76;85.21
72950;BME280;64868;45.710;9.590;2023-01-05T01:40:42;99774.59;;;6.80;85.89
72950;BME280;64868;45.710;9.590;2023-01-05T01:43:38;99784.28;;;6.86;85.34
72950;BME280;64868;45.710;9.590;2023-01-05T01:46:04;99777.09;;;6.85;84.92
72950;BME280;64868;45.710;9.590;2023-01-05T01:48:30;99780.63;;;6.87;84.54
72950;BME280;64868;45.710;9.590;2023-01-05T01:50:56;99783.97;;;6.92;84.84
72950;BME280;64868;45.710;9.590;2023-01-05T01:53:30;99772.53;;;6.86;83.39
72950;BME280;64868;45.710;9.590;2023-01-05T01:55:58;99783.09;;;6.92;84.60
72950;BME280;64868;45.710;9.590;2023-01-05T01:58:26;99766.84;;;6.92;84.23
72950;BME280;64868;45.710;9.590;2023-01-05T02:00:54;99766.09;;;6.88;84.86
72950;BME280;64868;45.710;9.590;2023-01-05T02:03:20;99767.28;;;6.82;84.25
72950;BME280;64868;45.710;9.590;2023-01-05T02:05:45;99767.28;;;6.82;84.78
72950;BME280;64868;45.710;9.590;2023-01-05T02:08:13;99764.97;;;6.73;85.13
72950;BME280;64868;45.710;9.590;2023-01-05T02:10:53;99769.31;;;6.77;85.68
72950;BME280;64868;45.710;9.590;2023-01-05T02:27:44;99728.81;;;6.54;86.20
72950;BME280;64868;45.710;9.590;2023-01-05T02:41:46;99712.66;;;6.32;86.85
72950;BME280;64868;45.710;9.590;2023-01-05T02:44:15;99703.66;;;6.31;86.77
72950;BME280;64868;45.710;9.590;2023-01-05T02:46:42;99700.00;;;6.32;86.35
72950;BME280;64868;45.710;9.590;2023-01-05T02:49:08;99696.41;;;6.32;85.51
72950;BME280;64868;45.710;9.590;2023-01-05T02:51:41;99689.09;;;6.34;87.07
72950;BME280;64868;45.710;9.590;2023-01-05T02:54:27;99680.78;;;6.39;85.62
72950;BME280;64868;45.710;9.590;2023-01-05T02:57:00;99674.13;;;6.46;86.07
72950;BME280;64868;45.710;9.590;2023-01-05T02:59:36;99686.94;;;6.42;86.54
72950;BME280;64868;45.710;9.590;2023-01-05T03:02:08;99679.53;;;6.46;85.53
72950;BME280;64868;45.710;9.590;2023-01-05T03:04:47;99676.69;;;6.49;85.04
72950;BME280;64868;45.710;9.590;2023-01-05T03:07:24;99667.00;;;6.43;84.93
72950;BME280;64868;45.710;9.590;2023-01-05T03:09:50;99665.72;;;6.52;85.04
72950;BME280;64868;45.710;9.590;2023-01-05T03:12:29;99671.28;;;6.49;85.43
72950;BME280;64868;45.710;9.590;2023-01-05T03:15:23;99666.44;;;6.37;87.01
72950;BME280;64868;45.710;9.590;2023-01-05T03:17:58;99662.63;;;6.41;86.26
72950;BME280;64868;45.710;9.590;2023-01-05T03:20:27;99656.31;;;6.40;86.73
72950;BME280;64868;45.710;9.590;2023-01-05T03:22:55;99658.63;;;6.49;85.71
72950;BME280;64868;45.710;9.590;2023-01-05T03:25:40;99653.19;;;6.49;85.54
72950;BME280;64868;45.710;9.590;2023-01-05T03:28:39;99646.97;;;6.47;84.66
72950;BME280;64868;45.710;9.590;2023-01-05T03:31:33;99646.09;;;6.47;85.99
72950;BME280;64868;45.710;9.590;2023-01-05T03:37:26;99626.84;;;6.53;84.50
72950;BME280;64868;45.710;9.590;2023-01-05T03:39:55;99623.13;;;6.55;86.19
72950;BME280;64868;45.710;9.590;2023-01-05T03:42:21;99625.63;;;6.60;84.88
72950;BME280;64868;45.710;9.590;2023-01-05T03:44:48;99611.56;;;6.52;84.33
72950;BME280;64868;45.710;9.590;2023-01-05T03:47:13;99616.00;;;6.53;84.82
72950;BME280;64868;45.710;9.590;2023-01-05T03:49:39;99624.66;;;6.61;84.00
72950;BME280;64868;45.710;9.590;2023-01-05T03:52:04;99627.97;;;6.68;83.61
72950;BME280;64868;45.710;9.590;2023-01-05T03:54:30;99610.28;;;6.78;83.28
72950;BME280;64868;45.710;9.590;2023-01-05T03:56:55;99603.34;;;6.72;81.86
72950;BME280;64868;45.710;9.590;2023-01-05T03:59:21;99609.00;;;6.68;81.80
72950;BME280;64868;45.710;9.590;2023-01-05T04:01:46;99607.94;;;6.70;82.22
72950;BME280;64868;45.710;9.590;2023-01-05T04:04:12;99604.22;;;6.73;83.03
72950;BME280;64868;45.710;9.590;2023-01-05T04:06:37;99603.06;;;6.78;82.91
72950;BME280;64868;45.710;9.590;2023-01-05T04:09:03;99592.06;;;6.81;82.72
72950;BME280;64868;45.710;9.590;2023-01-05T04:11:28;99605.22;;;6.89;82.78
72950;BME280;64868;45.710;9.590;2023-01-05T04:13:53;99602.75;;;6.85;81.95
72950;BME280;64868;45.710;9.590;2023-01-05T04:16:20;99593.84;;;6.82;82.79
72950;BME280;64868;45.710;9.590;2023-01-05T04:18:45;99590.31;;;6.80;81.87
72950;BME280;64868;45.710;9.590;2023-01-05T04:21:10;99585.75;;;6.81;82.26
72950;BME280;64868;45.710;9.590;2023-01-05T04:23:36;99586.63;;;6.81;81.99
72950;BME280;64868;45.710;9.590;2023-01-05T04:26:01;99585.03;;;6.77;82.83
72950;BME280;64868;45.710;9.590;2023-01-05T04:28:27;99580.72;;;6.73;82.26
72950;BME280;64868;45.710;9.590;2023-01-05T04:30:54;99590.44;;;6.77;81.49
72950;BME280;64868;45.710;9.590;2023-01-05T04:33:21;99588.56;;;6.79;82.10
72950;BME280;64868;45.710;9.590;2023-01-05T04:35:47;99574.91;;;6.81;82.57
72950;BME280;64868;45.710;9.590;2023-01-05T04:38:13;99579.56;;;6.79;82.41
72950;BME280;64868;45.710;9.590;2023-01-05T04:40:38;99573.31;;;6.77;82.61
72950;BME280;64868;45.710;9.590;2023-01-05T04:43:04;99563.34;;;6.77;82.69
72950;BME280;64868;45.710;9.590;2023-01-05T04:45:32;99569.63;;;6.78;83.07
72950;BME280;64868;45.710;9.590;2023-01-05T04:47:58;99571.47;;;6.77;82.33
72950;BME280;64868;45.710;9.590;2023-01-05T04:50:24;99564.44;;;6.73;82.58
72950;BME280;64868;45.710;9.590;2023-01-05T04:52:49;99555.81;;;6.65;83.81
72950;BME280;64868;45.710;9.590;2023-01-05T04:55:15;99565.66;;;6.68;82.73
72950;BME280;64868;45.710;9.590;2023-01-05T04:57:40;99567.41;;;6.69;83.34
72950;BME280;64868;45.710;9.590;2023-01-05T05:00:06;99564.03;;;6.64;82.42
72950;BME280;64868;45.710;9.590;2023-01-05T05:02:33;99557.88;;;6.60;83.41
72950;BME280;64868;45.710;9.590;2023-01-05T05:04:58;99571.34;;;6.62;82.68
72950;BME280;64868;45.710;9.590;2023-01-05T05:07:24;99569.50;;;6.62;82.75
72950;BME280;64868;45.710;9.590;2023-01-05T05:09:49;99569.50;;;6.62;82.77
72950;BME280;64868;45.710;9.590;2023-01-05T05:12:15;99568.59;;;6.63;81.71
72950;BME280;64868;45.710;9.590;2023-01-05T05:14:45;99572.06;;;6.65;81.40
72950;BME280;64868;45.710;9.590;2023-01-05T05:17:10;99568.22;;;6.71;82.22
72950;BME280;64868;45.710;9.590;2023-01-05T05:19:36;99566.22;;;6.74;82.29
72950;BME280;64868;45.710;9.590;2023-01-05T05:22:01;99569.38;;;6.65;82.32
72950;BME280;64868;45.710;9.590;2023-01-05T05:24:26;99560.59;;;6.60;81.62
72950;BME280;64868;45.710;9.590;2023-01-05T05:26:52;99550.34;;;6.48;81.75
72950;BME280;64868;45.710;9.590;2023-01-05T05:29:17;99566.28;;;6.54;82.00
72950;BME280;64868;45.710;9.590;2023-01-05T05:31:43;99564.81;;;6.47;81.92
72950;BME280;64868;45.710;9.590;2023-01-05T05:34:08;99564.97;;;6.44;82.23
72950;BME280;64868;45.710;9.590;2023-01-05T05:36:33;99558.75;;;6.42;82.27
72950;BME280;64868;45.710;9.590;2023-01-05T05:39:00;99553.63;;;6.36;83.21
72950;BME280;64868;45.710;9.590;2023-01-05T05:41:25;99579.31;;;6.27;84.12
72950;BME280;64868;45.710;9.590;2023-01-05T05:43:51;99571.81;;;6.13;85.34
72950;BME280;64868;45.710;9.590;2023-01-05T05:46:16;99590.47;;;6.00;86.04
72950;BME280;64868;45.710;9.590;2023-01-05T05:48:41;99569.38;;;5.86;86.33
72950;BME280;64868;45.710;9.590;2023-01-05T05:51:07;99584.69;;;5.88;87.33
72950;BME280;64868;45.710;9.590;2023-01-05T05:53:32;99575.09;;;5.80;87.12
72950;BME280;64868;45.710;9.590;2023-01-05T05:55:58;99576.09;;;5.78;88.23
72950;BME280;64868;45.710;9.590;2023-01-05T05:58:23;99568.94;;;5.77;87.38
72950;BME280;64868;45.710;9.590;2023-01-05T06:00:48;99567.19;;;5.76;87.72
72950;BME280;64868;45.710;9.590;2023-01-05T06:03:14;99565.19;;;5.79;88.45
72950;BME280;64868;45.710;9.590;2023-01-05T06:05:39;99582.13;;;5.84;86.61
72950;BME280;64868;45.710;9.590;2023-01-05T06:08:05;99558.16;;;5.75;87.13
72950;BME280;64868;45.710;9.590;2023-01-05T06:10:30;99562.50;;;5.79;86.78
72950;BME280;64868;45.710;9.590;2023-01-05T06:12:56;99569.34;;;5.88;86.82
72950;BME280;64868;45.710;9.590;2023-01-05T06:15:22;99577.31;;;5.91;87.39
72950;BME280;64868;45.710;9.590;2023-01-05T06:17:48;99573.19;;;5.82;86.06
72950;BME280;64868;45.710;9.590;2023-01-05T06:20:15;99584.97;;;5.81;87.28
72950;BME280;64868;45.710;9.590;2023-01-05T06:22:42;99570.91;;;5.73;86.81
72950;BME280;64868;45.710;9.590;2023-01-05T06:25:08;99579.00;;;5.73;86.69
72950;BME280;64868;45.710;9.590;2023-01-05T06:27:34;99570.81;;;5.75;86.87
72950;BME280;64868;45.710;9.590;2023-01-05T06:30:00;99579.16;;;5.70;86.82
72950;BME280;64868;45.710;9.590;2023-01-05T06:32:25;99563.16;;;5.64;87.03
72950;BME280;64868;45.710;9.590;2023-01-05T06:34:51;99556.31;;;5.57;87.70
72950;BME280;64868;45.710;9.590;2023-01-05T06:37:16;99561.28;;;5.66;88.38
72950;BME280;64868;45.710;9.590;2023-01-05T06:39:41;99547.91;;;5.63;87.38
72950;BME280;64868;45.710;9.590;2023-01-05T06:42:07;99557.16;;;5.78;86.87
72950;BME280;64868;45.710;9.590;2023-01-05T06:44:32;99555.53;;;5.74;86.99
72950;BME280;64868;45.710;9.590;2023-01-05T06:46:58;99560.22;;;5.70;87.48
72950;BME280;64868;45.710;9.590;2023-01-05T06:49:23;99568.44;;;5.67;86.62
72950;BME280;64868;45.710;9.590;2023-01-05T06:51:49;99561.41;;;5.63;86.86
72950;BME280;64868;45.710;9.590;2023-01-05T06:54:14;99559.66;;;5.62;86.50
72950;BME280;64868;45.710;9.590;2023-01-05T06:56:39;99552.00;;;5.72;85.78
72950;BME280;64868;45.710;9.590;2023-01-05T06:59:05;99555.53;;;5.74;85.54
72950;BME280;64868;45.710;9.590;2023-01-05T07:01:31;99550.22;;;5.72;84.53
72950;BME280;64868;45.710;9.590;2023-01-05T07:03:56;99559.88;;;5.78;85.04
72950;BME280;64868;45.710;9.590;2023-01-05T07:06:21;99559.59;;;5.84;84.64
72950;BME280;64868;45.710;9.590;2023-01-05T07:08:47;99549.53;;;5.88;83.77
72950;BME280;64868;45.710;9.590;2023-01-05T07:11:12;99547.16;;;6.00;83.90
72950;BME280;64868;45.710;9.590;2023-01-05T07:13:38;99551.13;;;6.12;82.28
72950;BME280;64868;45.710;9.590;2023-01-05T07:16:06;99544.59;;;6.16;82.26
72950;BME280;64868;45.710;9.590;2023-01-05T07:18:32;99544.13;;;6.27;81.94
72950;BME280;64868;45.710;9.590;2023-01-05T07:21:00;99550.69;;;6.40;82.06
72950;BME280;64868;45.710;9.590;2023-01-05T07:23:26;99543.75;;;6.53;81.39
72950;BME280;64868;45.710;9.590;2023-01-05T07:25:51;99534.78;;;6.70;81.08
72950;BME280;64868;45.710;9.590;2023-01-05T07:28:17;99532.91;;;6.72;79.58
72950;BME280;64868;45.710;9.590;2023-01-05T07:30:42;99538.06;;;6.96;79.96
72950;BME280;64868;45.710;9.590;2023-01-05T07:33:07;99540.97;;;7.10;78.65
72950;BME280;64868;45.710;9.590;2023-01-05T07:35:33;99540.56;;;7.18;77.54
72950;BME280;64868;45.710;9.590;2023-01-05T07:37:58;99543.69;;;7.27;78.28
72950;BME280;64868;45.710;9.590;2023-01-05T07:40:24;99541.53;;;7.34;76.62
72950;BME280;64868;45.710;9.590;2023-01-05T07:42:52;99536.53;;;7.44;76.69
72950;BME280;64868;45.710;9.590;2023-01-05T07:45:19;99548.66;;;7.54;76.49
72950;BME280;64868;45.710;9.590;2023-01-05T07:47:45;99539.72;;;7.69;75.71
72950;BME280;64868;45.710;9.590;2023-01-05T07:50:11;99535.31;;;7.84;75.48
72950;BME280;64868;45.710;9.590;2023-01-05T07:52:37;99543.03;;;7.92;74.90
72950;BME280;64868;45.710;9.590;2023-01-05T07:55:03;99528.28;;;8.13;74.98
72950;BME280;64868;45.710;9.590;2023-01-05T07:57:29;99541.09;;;8.27;73.25
72950;BME280;64868;45.710;9.590;2023-01-05T07:59:55;99535.66;;;8.27;73.81
72950;BME280;64868;45.710;9.590;2023-01-05T08:02:20;99546.84;;;8.38;73.32
72950;BME280;64868;45.710;9.590;2023-01-05T08:04:45;99557.75;;;8.54;72.22
72950;BME280;64868;45.710;9.590;2023-01-05T08:07:12;99546.34;;;8.63;71.12
72950;BME280;64868;45.710;9.590;2023-01-05T08:09:40;99549.69;;;8.68;72.29
72950;BME280;64868;45.710;9.590;2023-01-05T08:12:24;99551.00;;;8.93;71.19
72950;BME280;64868;45.710;9.590;2023-01-05T08:14:51;99539.66;;;9.00;70.81
72950;BME280;64868;45.710;9.590;2023-01-05T08:17:16;99548.44;;;9.21;70.52
72950;BME280;64868;45.710;9.590;2023-01-05T08:19:42;99545.22;;;9.45;70.35
72950;BME280;64868;45.710;9.590;2023-01-05T08:22:07;99542.34;;;9.62;68.77
72950;BME280;64868;45.710;9.590;2023-01-05T08:24:32;99544.03;;;9.79;68.05
72950;BME280;64868;45.710;9.590;2023-01-05T08:26:58;99543.78;;;9.98;67.88
72950;BME280;64868;45.710;9.590;2023-01-05T08:29:23;99538.53;;;10.23;67.08
72950;BME280;64868;45.710;9.590;2023-01-05T08:31:49;99535.81;;;10.52;65.23
72950;BME280;64868;45.710;9.590;2023-01-05T08:34:14;99528.31;;;10.70;66.09
72950;BME280;64868;45.710;9.590;2023-01-05T08:36:39;99526.59;;;10.96;64.59
72950;BME280;64868;45.710;9.590;2023-01-05T08:39:05;99537.63;;;11.22;63.22
72950;BME280;64868;45.710;9.590;2023-01-05T08:41:35;99529.34;;;11.36;63.57
72950;BME280;64868;45.710;9.590;2023-01-05T08:44:04;99537.97;;;11.69;63.17
72950;BME280;64868;45.710;9.590;2023-01-05T08:46:33;99520.34;;;12.13;60.72
72950;BME280;64868;45.710;9.590;2023-01-05T08:49:00;99531.19;;;13.62;56.29
72950;BME280;64868;45.710;9.590;2023-01-05T08:51:26;99533.53;;;15.25;51.86
72950;BME280;64868;45.710;9.590;2023-01-05T08:53:52;99532.56;;;16.12;48.80
72950;BME280;64868;45.710;9.590;2023-01-05T08:56:18;99542.28;;;19.10;41.16
72950;BME280;64868;45.710;9.590;2023-01-05T08:58:44;99551.53;;;21.64;35.65
72950;BME280;64868;45.710;9.590;2023-01-05T09:01:12;99550.06;;;21.44;35.32
72950;BME280;64868;45.710;9.590;2023-01-05T09:03:38;99535.63;;;22.23;33.86
72950;BME280;64868;45.710;9.590;2023-01-05T09:06:05;99543.72;;;21.17;34.65
72950;BME280;64868;45.710;9.590;2023-01-05T09:08:33;99534.91;;;20.35;36.80
72950;BME280;64868;45.710;9.590;2023-01-05T09:11:17;99535.06;;;18.62;40.36
72950;BME280;64868;45.710;9.590;2023-01-05T09:13:49;99531.34;;;17.27;42.50
72950;BME280;64868;45.710;9.590;2023-01-05T09:16:17;99529.13;;;16.19;44.17
72950;BME280;64868;45.710;9.590;2023-01-05T09:18:43;99537.19;;;16.63;44.31
72950;BME280;64868;45.710;9.590;2023-01-05T09:21:10;99548.63;;;17.29;43.27
72950;BME280;64868;45.710;9.590;2023-01-05T09:23:36;99543.53;;;16.53;43.84
72950;BME280;64868;45.710;9.590;2023-01-05T09:26:06;99549.34;;;15.44;46.78
72950;BME280;64868;45.710;9.590;2023-01-05T09:28:32;99544.97;;;15.42;48.32
72950;BME280;64868;45.710;9.590;2023-01-05T09:31:12;99538.63;;;15.30;48.63
72950;BME280;64868;45.710;9.590;2023-01-05T09:33:38;99548.63;;;15.42;48.56
72950;BME280;64868;45.710;9.590;2023-01-05T09:36:04;99546.69;;;15.86;46.94
72950;BME280;64868;45.710;9.590;2023-01-05T09:38:30;99536.25;;;18.96;39.86
72950;BME280;64868;45.710;9.590;2023-01-05T09:40:59;99530.41;;;20.86;37.11
72950;BME280;64868;45.710;9.590;2023-01-05T09:43:30;99543.59;;;20.93;36.25
72950;BME280;64868;45.710;9.590;2023-01-05T09:45:58;99538.88;;;20.33;36.25
72950;BME280;64868;45.710;9.590;2023-01-05T09:48:25;99544.84;;;20.20;37.35
72950;BME280;64868;45.710;9.590;2023-01-05T09:50:51;99543.09;;;22.06;33.57
72950;BME280;64868;45.710;9.590;2023-01-05T09:53:24;99546.13;;;24.26;30.31
72950;BME280;64868;45.710;9.590;2023-01-05T09:55:50;99548.78;;;25.39;26.91
72950;BME280;64868;45.710;9.590;2023-01-05T09:58:20;99548.59;;;27.54;24.68
72950;BME280;64868;45.710;9.590;2023-01-05T10:03:29;99546.50;;;29.75;22.10
72950;BME280;64868;45.710;9.590;2023-01-05T10:05:56;99532.53;;;29.48;20.39
72950;BME280;64868;45.710;9.590;2023-01-05T10:08:38;99544.81;;;29.54;21.24
72950;BME280;64868;45.710;9.590;2023-01-05T10:11:17;99540.88;;;30.45;19.39
72950;BME280;64868;45.710;9.590;2023-01-05T10:14:09;99543.41;;;29.90;20.40
72950;BME280;64868;45.710;9.590;2023-01-05T10:16:38;99538.53;;;30.03;20.52
72950;BME280;64868;45.710;9.590;2023-01-05T10:19:12;99530.41;;;30.59;19.67
72950;BME280;64868;45.710;9.590;2023-01-05T10:24:10;99516.31;;;30.84;19.50
72950;BME280;64868;45.710;9.590;2023-01-05T10:29:18;99503.31;;;31.08;19.26
72950;BME280;64868;45.710;9.590;2023-01-05T10:39:45;99489.41;;;29.23;22.63
72950;BME280;64868;45.710;9.590;2023-01-05T10:45:08;99472.47;;;29.88;22.20
72950;BME280;64868;45.710;9.590;2023-01-05T10:47:36;99475.50;;;28.30;24.29
72950;BME280;64868;45.710;9.590;2023-01-05T10:50:20;99466.66;;;26.13;26.65
72950;BME280;64868;45.710;9.590;2023-01-05T10:52:49;99464.13;;;25.75;27.28
72950;BME280;64868;45.710;9.590;2023-01-05T10:55:16;99458.25;;;25.27;28.18
72950;BME280;64868;45.710;9.590;2023-01-05T10:57:45;99456.06;;;25.44;27.40
72950;BME280;64868;45.710;9.590;2023-01-05T11:02:41;99452.22;;;23.89;30.61
72950;BME280;64868;45.710;9.590;2023-01-05T11:07:53;99456.75;;;23.67;29.95
72950;BME280;64868;45.710;9.590;2023-01-05T11:10:34;99449.50;;;22.87;31.43
72950;BME280;64868;45.710;9.590;2023-01-05T11:15:53;99457.19;;;23.24;30.13
72950;BME280;64868;45.710;9.590;2023-01-05T11:18:24;99448.53;;;23.19;31.75
72950;BME280;64868;45.710;9.590;2023-01-05T11:21:09;99441.22;;;23.18;31.12
72950;BME280;64868;45.710;9.590;2023-01-05T11:23:39;99443.38;;;23.62;31.11
72950;BME280;64868;45.710;9.590;2023-01-05T11:28:58;99435.09;;;23.77;30.40
72950;BME280;64868;45.710;9.590;2023-01-05T11:31:36;99418.75;;;22.89;31.74
72950;BME280;64868;45.710;9.590;2023-01-05T11:34:08;99407.31;;;23.23;31.56
72950;BME280;64868;45.710;9.590;2023-01-05T11:36:38;99419.09;;;23.25;31.68
72950;BME280;64868;45.710;9.590;2023-01-05T11:39:04;99412.84;;;22.44;33.69
72950;BME280;64868;45.710;9.590;2023-01-05T11:41:30;99399.47;;;19.90;36.99
72950;BME280;64868;45.710;9.590;2023-01-05T11:43:56;99411.22;;;17.73;42.95
72950;BME280;64868;45.710;9.590;2023-01-05T11:46:25;99406.88;;;16.43;46.04
72950;BME280;64868;45.710;9.590;2023-01-05T11:49:03;99390.88;;;15.66;48.70
72950;BME280;64868;45.710;9.590;2023-01-05T11:51:38;99394.75;;;15.10;50.69
72950;BME280;64868;45.710;9.590;2023-01-05T11:54:05;99386.75;;;14.86;51.24
72950;BME280;64868;45.710;9.590;2023-01-05T11:56:31;99377.50;;;14.87;51.41
72950;BME280;64868;45.710;9.590;2023-01-05T11:58:56;99386.66;;;14.76;51.77
72950;BME280;64868;45.710;9.590;2023-01-05T12:08:00;99379.09;;;14.46;54.01
72950;BME280;64868;45.710;9.590;2023-01-05T12:16:25;99372.88;;;14.55;54.05
72950;BME280;64868;45.710;9.590;2023-01-05T12:22:12;99370.84;;;14.69;52.33
72950;BME280;64868;45.710;9.590;2023-01-05T12:33:41;99362.63;;;14.57;51.61
72950;BME280;64868;45.710;9.590;2023-01-05T12:41:55;99348.19;;;14.44;51.57
72950;BME280;64868;45.710;9.590;2023-01-05T12:52:30;99334.59;;;14.31;51.98
72950;BME280;64868;45.710;9.590;2023-01-05T12:57:39;99328.47;;;14.50;50.32
72950;BME280;64868;45.710;9.590;2023-01-05T13:00:13;99335.94;;;14.48;50.34
72950;BME280;64868;45.710;9.590;2023-01-05T13:02:47;99336.59;;;14.52;50.40
72950;BME280;64868;45.710;9.590;2023-01-05T13:05:16;99327.97;;;14.45;48.83
72950;BME280;64868;45.710;9.590;2023-01-05T13:13:27;99327.53;;;14.29;48.39
72950;BME280;64868;45.710;9.590;2023-01-05T13:16:04;99317.81;;;14.25;48.42
72950;BME280;64868;45.710;9.590;2023-01-05T13:18:36;99313.31;;;14.24;48.56
72950;BME280;64868;45.710;9.590;2023-01-05T13:21:04;99304.22;;;14.23;48.66
72950;BME280;64868;45.710;9.590;2023-01-05T13:23:34;99304.34;;;14.22;49.01
72950;BME280;64868;45.710;9.590;2023-01-05T13:26:05;99315.78;;;14.27;49.20
72950;BME280;64868;45.710;9.590;2023-01-05T13:28:31;99313.84;;;14.18;49.66
72950;BME280;64868;45.710;9.590;2023-01-05T13:34:14;99308.09;;;14.21;48.87
72950;BME280;64868;45.710;9.590;2023-01-05T13:53:57;99290.44;;;14.46;49.47
72950;BME280;64868;45.710;9.590;2023-01-05T13:56:27;99289.09;;;14.40;49.30
72950;BME280;64868;45.710;9.590;2023-01-05T14:04:00;99287.75;;;14.23;49.67
72950;BME280;64868;45.710;9.590;2023-01-05T14:06:33;99293.63;;;14.19;51.11
72950;BME280;64868;45.710;9.590;2023-01-05T14:09:11;99299.28;;;14.06;49.18
72950;BME280;64868;45.710;9.590;2023-01-05T14:15:31;99297.16;;;13.98;51.33
72950;BME280;64868;45.710;9.590;2023-01-05T14:17:53;99294.53;;;13.97;50.56
72950;BME280;64868;45.710;9.590;2023-01-05T14:20:33;99300.28;;;13.94;50.26
72950;BME280;64868;45.710;9.590;2023-01-05T14:23:01;99295.16;;;13.89;50.95
72950;BME280;64868;45.710;9.590;2023-01-05T14:36:44;99297.91;;;13.78;50.56
72950;BME280;64868;45.710;9.590;2023-01-05T14:41:43;99292.31;;;13.91;53.36
72950;BME280;64868;45.710;9.590;2023-01-05T14:44:20;99291.31;;;13.92;52.89
72950;BME280;64868;45.710;9.590;2023-01-05T14:46:52;99292.44;;;13.78;52.11
72950;BME280;64868;45.710;9.590;2023-01-05T14:49:34;99297.53;;;13.82;52.38
72950;BME280;64868;45.710;9.590;2023-01-05T14:52:03;99280.75;;;13.76;52.45
72950;BME280;64868;45.710;9.590;2023-01-05T15:02:56;99274.44;;;13.18;52.85
72950;BME280;64868;45.710;9.590;2023-01-05T15:05:24;99285.66;;;13.03;52.98
72950;BME280;64868;45.710;9.590;2023-01-05T15:08:10;99286.13;;;12.97;53.24
72950;BME280;64868;45.710;9.590;2023-01-05T15:13:35;99296.75;;;12.78;54.11
72950;BME280;64868;45.710;9.590;2023-01-05T15:22:03;99302.50;;;12.51;56.46
72950;BME280;64868;45.710;9.590;2023-01-05T15:27:29;99288.78;;;12.39;59.38
72950;BME280;64868;45.710;9.590;2023-01-05T15:32:49;99298.41;;;12.08;60.01
72950;BME280;64868;45.710;9.590;2023-01-05T15:35:39;99298.81;;;12.15;58.84
72950;BME280;64868;45.710;9.590;2023-01-05T15:38:19;99309.16;;;11.99;59.42
72950;BME280;64868;45.710;9.590;2023-01-05T15:40:46;99317.50;;;11.84;59.15
72950;BME280;64868;45.710;9.590;2023-01-05T15:43:16;99312.59;;;11.51;60.01
72950;BME280;64868;45.710;9.590;2023-01-05T15:45:48;99319.16;;;11.36;61.43
72950;BME280;64868;45.710;9.590;2023-01-05T15:48:20;99318.63;;;11.18;61.35
72950;BME280;64868;45.710;9.590;2023-01-05T15:50:52;99321.00;;;11.10;60.28
72950;BME280;64868;45.710;9.590;2023-01-05T15:53:25;99318.59;;;10.92;61.37
72950;BME280;64868;45.710;9.590;2023-01-05T15:55:51;99322.53;;;11.01;61.87
72950;BME280;64868;45.710;9.590;2023-01-05T15:58:19;99325.13;;;10.90;61.72
72950;BME280;64868;45.710;9.590;2023-01-05T16:01:01;99318.34;;;10.70;62.22
72950;BME280;64868;45.710;9.590;2023-01-05T16:03:29;99321.25;;;10.54;63.04
72950;BME280;64868;45.710;9.590;2023-01-05T16:05:57;99325.75;;;10.41;63.00
72950;BME280;64868;45.710;9.590;2023-01-05T16:08:23;99322.59;;;10.20;64.64
72950;BME280;64868;45.710;9.590;2023-01-05T16:10:55;99332.34;;;10.10;65.08